createdAt,value
2022-11-01T00:01:27.880Z,98.60
2022-11-01T00:03:54.773Z,98.60
2022-11-01T00:06:21.920Z,98.70
2022-11-01T00:08:48.686Z,98.90
2022-11-01T00:11:17.275Z,98.80
2022-11-01T00:13:48.602Z,98.80
2022-11-01T00:16:16.247Z,99.20
2022-11-01T00:18:43.359Z,99.30
2022-11-01T00:21:11.176Z,99.30
2022-11-01T00:23:38.163Z,99.40
2022-11-01T00:26:05.487Z,99.40
2022-11-01T00:28:32.882Z,99.60
2022-11-01T00:31:00.185Z,99.50
2022-11-01T00:33:27.177Z,99.60
2022-11-01T00:35:54.202Z,99.80
2022-11-01T00:38:20.988Z,99.90
2022-11-01T00:40:47.786Z,99.90
2022-11-01T00:43:14.807Z,99.90
2022-11-01T00:45:44.533Z,99.90
2022-11-01T00:48:12.714Z,99.90
2022-11-01T00:50:40.058Z,99.90
2022-11-01T00:53:08.990Z,99.90
2022-11-01T00:55:36.167Z,99.90
2022-11-01T00:58:03.435Z,99.90
2022-11-01T01:00:30.506Z,99.90
2022-11-01T01:02:57.327Z,99.90
2022-11-01T01:05:24.108Z,99.90
2022-11-01T01:07:50.896Z,99.90
2022-11-01T01:10:18.017Z,99.90
2022-11-01T01:12:44.788Z,99.90
2022-11-01T01:15:11.831Z,99.90
2022-11-01T01:17:38.806Z,99.90
2022-11-01T01:20:06.019Z,99.90
2022-11-01T01:22:32.753Z,99.90
2022-11-01T01:24:59.699Z,99.90
2022-11-01T01:27:26.469Z,99.90
2022-11-01T01:29:53.336Z,99.90
2022-11-01T01:32:23.296Z,99.90
2022-11-01T01:34:50.861Z,99.90
2022-11-01T01:37:18.166Z,99.90
2022-11-01T01:39:44.959Z,99.90
2022-11-01T01:42:16.479Z,99.90
2022-11-01T01:44:52.168Z,99.90
2022-11-01T01:47:32.462Z,99.90
2022-11-01T01:50:15.397Z,99.90
2022-11-01T01:53:06.862Z,99.90
2022-11-01T01:55:59.793Z,99.90
2022-11-01T01:58:34.334Z,99.90
2022-11-01T02:01:01.227Z,99.90
2022-11-01T02:03:32.145Z,99.90
2022-11-01T02:06:09.562Z,99.90
2022-11-01T02:08:40.410Z,99.90
2022-11-01T02:11:08.250Z,99.90
2022-11-01T02:13:35.963Z,99.90
2022-11-01T02:16:21.365Z,99.90
2022-11-01T02:19:22.341Z,99.90
2022-11-01T02:22:01.019Z,99.90
2022-11-01T02:24:33.686Z,99.90
2022-11-01T02:27:05.956Z,99.90
2022-11-01T02:29:54.658Z,99.90
2022-11-01T02:32:25.975Z,99.90
2022-11-01T02:35:11.666Z,99.90
2022-11-01T02:37:38.393Z,99.90
2022-11-01T02:40:15.636Z,99.90
2022-11-01T02:42:46.548Z,99.90
2022-11-01T02:45:29.214Z,99.90
2022-11-01T02:48:01.066Z,99.90
2022-11-01T02:50:38.858Z,99.90
2022-11-01T02:53:06.595Z,99.90
2022-11-01T02:55:36.286Z,99.90
2022-11-01T02:58:28.676Z,99.90
2022-11-01T03:00:57.127Z,99.90
2022-11-01T03:03:32.327Z,99.90
2022-11-01T03:06:14.221Z,99.90
2022-11-01T03:08:59.276Z,99.90
2022-11-01T03:11:59.270Z,99.90
2022-11-01T03:14:47.771Z,99.90
2022-11-01T03:17:48.862Z,99.90
2022-11-01T03:20:47.319Z,99.90
2022-11-01T03:23:39.650Z,99.90
2022-11-01T03:26:12.095Z,99.90
2022-11-01T03:29:07.521Z,99.90
2022-11-01T03:31:36.991Z,99.90
2022-11-01T03:34:13.021Z,99.90
2022-11-01T03:36:42.824Z,99.90
2022-11-01T03:39:19.151Z,99.90
2022-11-01T03:41:51.158Z,99.90
2022-11-01T03:44:19.088Z,99.90
2022-11-01T03:46:47.145Z,99.90
2022-11-01T03:49:18.385Z,99.90
2022-11-01T03:51:45.990Z,99.90
2022-11-01T03:54:12.867Z,99.90
2022-11-01T03:56:40.780Z,99.90
2022-11-01T03:59:09.856Z,99.90
2022-11-01T04:01:37.041Z,99.90
2022-11-01T04:04:03.960Z,99.90
2022-11-01T04:06:30.793Z,99.90
2022-11-01T04:08:57.660Z,99.90
2022-11-01T04:11:24.539Z,99.90
2022-11-01T04:13:51.293Z,99.90
2022-11-01T04:16:37.139Z,99.90
2022-11-01T04:19:22.581Z,99.90
2022-11-01T04:21:49.376Z,99.90
2022-11-01T04:24:21.145Z,99.90
2022-11-01T04:26:48.422Z,99.90
2022-11-01T04:29:15.198Z,99.90
2022-11-01T04:31:42.014Z,99.90
2022-11-01T04:34:08.868Z,99.90
2022-11-01T04:36:37.667Z,99.90
2022-11-01T04:39:04.698Z,99.90
2022-11-01T04:41:31.483Z,99.90
2022-11-01T04:43:59.610Z,99.90
2022-11-01T04:46:29.693Z,99.90
2022-11-01T04:48:56.604Z,99.90
2022-11-01T04:51:23.617Z,99.90
2022-11-01T04:53:50.354Z,99.90
2022-11-01T04:56:17.154Z,99.90
2022-11-01T04:58:46.043Z,99.90
2022-11-01T05:01:14.682Z,99.90
2022-11-01T05:03:42.200Z,99.80
2022-11-01T05:06:09.135Z,97.50
2022-11-01T05:08:35.909Z,95.60
2022-11-01T05:11:02.796Z,93.10
2022-11-01T05:13:29.711Z,91.80
2022-11-01T05:18:43.612Z,87.20
2022-11-01T05:21:10.677Z,85.00
2022-11-01T05:23:37.559Z,84.10
2022-11-01T05:26:04.497Z,83.30
2022-11-01T05:28:31.347Z,82.10
2022-11-01T05:30:58.818Z,81.20
2022-11-01T05:33:25.721Z,80.50
2022-11-01T05:35:52.538Z,79.70
2022-11-01T05:38:19.365Z,78.50
2022-11-01T05:40:46.167Z,77.00
2022-11-01T05:43:12.927Z,75.90
2022-11-01T05:45:39.767Z,75.20
2022-11-01T05:48:06.704Z,74.30
2022-11-01T05:50:33.481Z,73.40
2022-11-01T05:53:10.539Z,72.80
2022-11-01T05:55:38.953Z,72.10
2022-11-01T05:58:06.405Z,71.60
2022-11-01T06:00:36.035Z,70.80
2022-11-01T06:03:03.771Z,71.00
2022-11-01T06:05:31.178Z,70.30
2022-11-01T06:08:00.499Z,70.80
2022-11-01T06:10:27.569Z,71.30
2022-11-01T06:12:54.944Z,71.50
2022-11-01T06:15:21.996Z,71.80
2022-11-01T06:17:57.258Z,71.70
2022-11-01T06:20:25.128Z,72.10
2022-11-01T06:22:51.939Z,72.00
2022-11-01T06:25:18.749Z,72.10
2022-11-01T06:27:45.559Z,72.30
2022-11-01T06:30:12.607Z,71.90
2022-11-01T06:32:39.375Z,72.20
2022-11-01T06:35:06.730Z,72.70
2022-11-01T06:37:33.490Z,72.40
2022-11-01T06:40:00.296Z,71.80
2022-11-01T06:42:27.075Z,71.40
2022-11-01T06:44:53.822Z,71.10
2022-11-01T06:47:20.590Z,71.60
2022-11-01T06:49:47.373Z,73.30
2022-11-01T06:52:14.126Z,73.40
2022-11-01T06:54:40.870Z,73.20
2022-11-01T06:57:08.093Z,73.80
2022-11-01T06:59:34.889Z,73.20
2022-11-01T07:02:01.761Z,72.80
2022-11-01T07:04:29.749Z,72.30
2022-11-01T07:06:56.525Z,71.80
2022-11-01T07:09:23.363Z,71.50
2022-11-01T07:11:50.143Z,71.50
2022-11-01T07:14:16.985Z,72.00
2022-11-01T07:16:43.782Z,72.00
2022-11-01T07:19:10.617Z,72.20
2022-11-01T07:21:37.799Z,71.80
2022-11-01T07:24:05.387Z,71.30
2022-11-01T07:26:32.210Z,71.20
2022-11-01T07:28:59.000Z,71.30
2022-11-01T07:31:25.801Z,71.00
2022-11-01T07:33:53.629Z,71.50
2022-11-01T07:36:20.428Z,71.20
2022-11-01T07:38:47.215Z,71.10
2022-11-01T07:41:14.040Z,70.70
2022-11-01T07:43:40.823Z,70.60
2022-11-01T07:46:07.701Z,70.40
2022-11-01T07:48:36.975Z,70.60
2022-11-01T07:51:05.979Z,70.20
2022-11-01T07:53:32.940Z,70.70
2022-11-01T07:56:02.792Z,70.30
2022-11-01T07:58:29.852Z,70.50
2022-11-01T08:00:56.772Z,70.10
2022-11-01T08:03:24.104Z,70.70
2022-11-01T08:05:51.186Z,71.00
2022-11-01T08:08:18.195Z,71.90
2022-11-01T08:10:45.813Z,72.00
2022-11-01T08:13:21.620Z,72.40
2022-11-01T08:15:49.512Z,73.00
2022-11-01T08:18:17.644Z,73.60
2022-11-01T08:20:44.449Z,74.10
2022-11-01T08:23:11.914Z,74.30
2022-11-01T08:25:39.222Z,74.50
2022-11-01T08:28:10.723Z,74.80
2022-11-01T08:30:39.172Z,75.30
2022-11-01T08:33:06.409Z,75.40
2022-11-01T08:35:34.368Z,75.80
2022-11-01T08:38:03.397Z,76.30
2022-11-01T08:40:31.602Z,76.90
2022-11-01T08:42:58.988Z,76.70
2022-11-01T08:45:26.498Z,76.30
2022-11-01T08:48:05.117Z,77.00
2022-11-01T08:50:36.531Z,76.90
2022-11-01T08:53:08.364Z,76.90
2022-11-01T08:55:37.971Z,77.30
2022-11-01T08:58:06.028Z,77.70
2022-11-01T09:00:34.486Z,77.60
2022-11-01T09:03:01.482Z,77.40
2022-11-01T09:05:31.577Z,76.90
2022-11-01T09:08:00.133Z,76.60
2022-11-01T09:10:28.519Z,77.20
2022-11-01T09:12:55.334Z,77.30
2022-11-01T09:15:22.261Z,77.30
2022-11-01T09:17:49.069Z,77.50
2022-11-01T09:20:15.938Z,77.10
2022-11-01T09:22:42.720Z,77.00
2022-11-01T09:25:10.031Z,76.50
2022-11-01T09:27:36.984Z,76.50
2022-11-01T09:30:07.207Z,76.80
2022-11-01T09:32:33.964Z,76.90
2022-11-01T09:35:00.815Z,77.00
2022-11-01T09:37:27.743Z,76.60
2022-11-01T09:39:54.480Z,76.50
2022-11-01T09:42:28.577Z,76.50
2022-11-01T09:45:00.829Z,76.30
2022-11-01T09:47:30.296Z,75.60
2022-11-01T09:50:20.408Z,75.70
2022-11-01T09:52:47.704Z,75.40
2022-11-01T09:55:16.364Z,75.70
2022-11-01T09:58:06.149Z,75.80
2022-11-01T10:00:40.191Z,75.70
2022-11-01T10:03:21.302Z,76.50
2022-11-01T10:06:09.941Z,76.10
2022-11-01T10:09:06.887Z,76.00
2022-11-01T10:11:56.843Z,75.70
2022-11-01T10:14:37.053Z,75.70
2022-11-01T10:17:11.845Z,75.60
2022-11-01T10:19:42.640Z,75.40
2022-11-01T10:22:25.503Z,75.00
2022-11-01T10:25:23.563Z,75.10
2022-11-01T10:27:53.578Z,75.10
2022-11-01T10:30:21.019Z,74.70
2022-11-01T10:32:58.154Z,73.90
2022-11-01T10:35:29.320Z,73.90
2022-11-01T10:38:24.844Z,73.60
2022-11-01T10:41:24.247Z,73.80
2022-11-01T10:43:56.150Z,72.60
2022-11-01T10:46:38.412Z,71.60
2022-11-01T10:49:14.907Z,71.50
2022-11-01T10:51:42.252Z,70.10
2022-11-01T10:54:17.875Z,71.20
2022-11-01T10:56:47.975Z,70.80
2022-11-01T10:59:23.885Z,70.60
2022-11-01T11:01:53.105Z,70.70
2022-11-01T11:04:24.111Z,70.60
2022-11-01T11:06:51.869Z,70.60
2022-11-01T11:09:28.434Z,70.30
2022-11-01T11:12:06.873Z,70.30
2022-11-01T11:14:34.838Z,70.10
2022-11-01T11:17:03.934Z,70.30
2022-11-01T11:19:30.661Z,70.30
2022-11-01T11:21:59.220Z,70.30
2022-11-01T11:24:28.983Z,70.30
2022-11-01T11:26:57.006Z,70.10
2022-11-01T11:29:33.652Z,68.50
2022-11-01T11:32:01.366Z,68.60
2022-11-01T11:34:34.248Z,68.20
2022-11-01T11:37:03.309Z,67.40
2022-11-01T11:39:36.037Z,66.50
2022-11-01T11:42:21.820Z,66.00
2022-11-01T11:44:55.389Z,65.40
2022-11-01T11:47:28.346Z,65.40
2022-11-01T11:49:58.451Z,65.80
2022-11-01T11:52:38.587Z,66.30
2022-11-01T11:55:25.139Z,66.20
2022-11-01T11:57:52.832Z,66.50
2022-11-01T12:00:24.435Z,66.70
2022-11-01T12:02:51.266Z,66.90
2022-11-01T12:05:20.091Z,67.40
2022-11-01T12:07:49.963Z,67.50
2022-11-01T12:10:37.448Z,67.50
2022-11-01T12:13:34.141Z,67.40
2022-11-01T12:16:09.985Z,66.50
2022-11-01T12:18:46.982Z,66.90
2022-11-01T12:21:29.856Z,67.30
2022-11-01T12:24:19.874Z,67.40
2022-11-01T12:26:48.572Z,67.20
2022-11-01T12:29:30.909Z,66.90
2022-11-01T12:32:03.511Z,67.20
2022-11-01T12:34:38.359Z,67.80
2022-11-01T12:37:19.474Z,68.40
2022-11-01T12:39:59.346Z,68.70
2022-11-01T12:42:33.918Z,68.70
2022-11-01T12:45:12.328Z,68.60
2022-11-01T12:47:50.605Z,68.60
2022-11-01T12:50:43.791Z,69.00
2022-11-01T12:53:19.428Z,68.60
2022-11-01T12:55:47.194Z,68.40
2022-11-01T12:58:21.969Z,68.80
2022-11-01T13:01:07.760Z,69.00
2022-11-01T13:03:41.774Z,68.80
2022-11-01T13:06:33.351Z,68.60
2022-11-01T13:09:18.639Z,69.10
2022-11-01T13:11:48.206Z,69.40
2022-11-01T13:14:24.203Z,69.50
2022-11-01T13:17:23.967Z,69.50
2022-11-01T13:20:21.993Z,69.60
2022-11-01T13:22:59.896Z,69.60
2022-11-01T13:25:26.792Z,69.60
2022-11-01T13:28:05.495Z,69.90
2022-11-01T13:30:34.543Z,70.00
2022-11-01T13:33:31.486Z,70.50
2022-11-01T13:36:13.369Z,71.80
2022-11-01T13:39:01.611Z,72.70
2022-11-01T13:41:28.462Z,73.90
2022-11-01T13:44:03.213Z,74.60
2022-11-01T13:47:08.038Z,75.30
2022-11-01T13:49:34.858Z,76.10
2022-11-01T13:52:23.560Z,76.80
2022-11-01T13:55:21.224Z,76.10
2022-11-01T13:57:48.695Z,76.40
2022-11-01T14:00:44.846Z,76.60
2022-11-01T14:03:21.978Z,77.00
2022-11-01T14:06:11.644Z,77.10
2022-11-01T14:08:47.578Z,77.70
2022-11-01T14:11:34.156Z,78.00
2022-11-01T14:14:20.892Z,77.90
2022-11-01T14:16:47.685Z,78.00
2022-11-01T14:19:20.841Z,78.00
2022-11-01T14:21:49.705Z,78.10
2022-11-01T14:24:33.577Z,78.30
2022-11-01T14:27:26.615Z,77.50
2022-11-01T14:29:54.384Z,77.20
2022-11-01T14:32:24.502Z,76.40
2022-11-01T14:35:26.055Z,76.50
2022-11-01T14:37:54.644Z,76.90
2022-11-01T14:40:29.312Z,76.20
2022-11-01T14:43:13.080Z,76.30
2022-11-01T14:45:45.080Z,76.20
2022-11-01T14:48:17.599Z,76.30
2022-11-01T14:50:57.436Z,76.40
2022-11-01T14:53:37.450Z,75.40
2022-11-01T14:56:27.604Z,76.10
2022-11-01T14:59:12.596Z,75.70
2022-11-01T15:01:48.086Z,76.60
2022-11-01T15:04:24.154Z,75.60
2022-11-01T15:06:51.520Z,74.80
2022-11-01T15:09:30.608Z,73.50
2022-11-01T15:12:08.276Z,72.80
2022-11-01T15:14:37.353Z,71.80
2022-11-01T15:17:05.789Z,72.00
2022-11-01T15:19:38.032Z,73.20
2022-11-01T15:22:06.499Z,72.30
2022-11-01T15:24:34.878Z,72.30
2022-11-01T15:27:13.711Z,72.70
2022-11-01T15:29:43.267Z,73.00
2022-11-01T15:32:24.995Z,73.50
2022-11-01T15:34:53.849Z,73.40
2022-11-01T15:37:23.400Z,73.50
2022-11-01T15:39:50.410Z,73.10
2022-11-01T15:42:24.076Z,73.70
2022-11-01T15:44:51.007Z,73.30
2022-11-01T15:47:22.432Z,73.90
2022-11-01T15:50:06.681Z,73.90
2022-11-01T15:52:35.652Z,74.30
2022-11-01T15:55:05.624Z,74.10
2022-11-01T15:57:42.139Z,73.90
2022-11-01T16:00:19.504Z,74.00
2022-11-01T16:03:05.742Z,74.40
2022-11-01T16:05:38.823Z,74.50
2022-11-01T16:08:08.370Z,74.40
2022-11-01T16:10:35.918Z,74.10
2022-11-01T16:13:04.826Z,74.40
2022-11-01T16:15:34.425Z,74.40
2022-11-01T16:18:13.983Z,74.00
2022-11-01T16:20:41.226Z,74.00
2022-11-01T16:23:09.637Z,74.00
2022-11-01T16:25:38.054Z,74.30
2022-11-01T16:28:26.572Z,74.40
2022-11-01T16:30:55.166Z,74.50
2022-11-01T16:33:25.307Z,74.60
2022-11-01T16:35:53.656Z,75.20
2022-11-01T16:38:24.853Z,75.30
2022-11-01T16:40:55.199Z,75.40
2022-11-01T16:43:23.484Z,75.60
2022-11-01T16:45:51.299Z,75.70
2022-11-01T16:48:27.369Z,75.50
2022-11-01T16:50:56.009Z,76.00
2022-11-01T16:53:25.657Z,76.50
2022-11-01T16:56:10.812Z,76.60
2022-11-01T16:58:47.202Z,76.40
2022-11-01T17:01:22.443Z,76.80
2022-11-01T17:03:50.219Z,76.90
2022-11-01T17:06:17.117Z,77.00
2022-11-01T17:08:44.034Z,77.70
2022-11-01T17:11:10.814Z,77.80
2022-11-01T17:13:37.783Z,78.40
2022-11-01T17:16:06.213Z,78.60
2022-11-01T17:18:38.418Z,78.50
2022-11-01T17:21:08.083Z,78.10
2022-11-01T17:23:35.272Z,78.00
2022-11-01T17:26:04.933Z,77.90
2022-11-01T17:28:31.790Z,78.10
2022-11-01T17:30:58.566Z,78.40
2022-11-01T17:33:25.330Z,78.20
2022-11-01T17:35:52.332Z,78.70
2022-11-01T17:38:33.468Z,79.10
2022-11-01T17:41:02.209Z,79.20
2022-11-01T17:43:28.978Z,79.70
2022-11-01T17:45:58.485Z,80.00
2022-11-01T17:48:25.698Z,80.50
2022-11-01T17:50:52.481Z,80.00
2022-11-01T17:53:19.539Z,80.20
2022-11-01T17:55:46.556Z,80.20
2022-11-01T17:58:13.420Z,80.40
2022-11-01T18:00:41.901Z,80.40
2022-11-01T18:03:10.248Z,80.30
2022-11-01T18:05:37.452Z,80.60
2022-11-01T18:08:20.832Z,80.90
2022-11-01T18:11:05.437Z,81.00
2022-11-01T18:13:46.525Z,81.10
2022-11-01T18:16:19.352Z,81.40
2022-11-01T18:19:04.275Z,81.30
2022-11-01T18:21:38.969Z,81.70
2022-11-01T18:24:21.280Z,81.70
2022-11-01T18:26:49.504Z,81.80
2022-11-01T18:29:24.140Z,82.10
2022-11-01T18:31:59.848Z,82.30
2022-11-01T18:34:47.847Z,82.70
2022-11-01T18:37:24.771Z,82.90
2022-11-01T18:40:03.470Z,83.50
2022-11-01T18:42:30.733Z,84.00
2022-11-01T18:45:01.846Z,84.40
2022-11-01T18:47:34.828Z,84.70
2022-11-01T18:50:12.793Z,85.60
2022-11-01T18:52:43.044Z,86.70
2022-11-01T18:55:13.803Z,86.80
2022-11-01T18:57:40.767Z,86.90
2022-11-01T19:00:13.971Z,87.20
2022-11-01T19:02:41.410Z,87.40
2022-11-01T19:05:17.995Z,87.60
2022-11-01T19:08:10.246Z,88.10
2022-11-01T19:10:38.389Z,88.20
2022-11-01T19:13:12.771Z,88.40
2022-11-01T19:15:40.529Z,88.20
2022-11-01T19:18:19.128Z,88.40
2022-11-01T19:20:50.586Z,88.70
2022-11-01T19:23:23.474Z,88.50
2022-11-01T19:25:51.571Z,88.30
2022-11-01T19:28:35.077Z,88.40
2022-11-01T19:31:14.528Z,88.70
2022-11-01T19:33:44.712Z,88.60
2022-11-01T19:36:17.487Z,88.10
2022-11-01T19:38:48.136Z,88.00
2022-11-01T19:41:19.666Z,88.30
2022-11-01T19:43:46.568Z,88.00
2022-11-01T19:46:18.677Z,87.80
2022-11-01T19:48:46.209Z,87.50
2022-11-01T19:51:17.600Z,87.70
2022-11-01T19:53:45.587Z,88.00
2022-11-01T19:56:23.775Z,87.70
2022-11-01T19:59:03.631Z,87.60
2022-11-01T20:01:42.404Z,87.80
2022-11-01T20:04:27.613Z,87.60
2022-11-01T20:07:01.395Z,88.70
2022-11-01T20:09:30.757Z,88.20
2022-11-01T20:11:57.730Z,88.30
2022-11-01T20:14:24.648Z,88.80
2022-11-01T20:16:51.947Z,88.60
2022-11-01T20:19:18.953Z,88.60
2022-11-01T20:21:46.247Z,88.70
2022-11-01T20:24:13.432Z,88.60
2022-11-01T20:26:40.513Z,88.80
2022-11-01T20:29:07.497Z,88.30
2022-11-01T20:31:34.386Z,87.90
2022-11-01T20:34:01.350Z,87.90
2022-11-01T20:36:28.659Z,88.00
2022-11-01T20:38:55.578Z,87.80
2022-11-01T20:41:22.732Z,87.40
2022-11-01T20:43:49.711Z,87.30
2022-11-01T20:46:16.854Z,87.10
2022-11-01T20:48:45.228Z,87.60
2022-11-01T20:51:13.288Z,88.00
2022-11-01T20:53:40.492Z,88.30
2022-11-01T20:56:08.145Z,88.10
2022-11-01T20:58:40.974Z,88.00
2022-11-01T21:01:19.149Z,88.30
2022-11-01T21:03:46.299Z,88.70
2022-11-01T21:06:17.679Z,88.40
2022-11-01T21:08:49.197Z,88.70
2022-11-01T21:11:43.896Z,89.10
2022-11-01T21:14:15.820Z,89.00
2022-11-01T21:16:43.120Z,89.00
2022-11-01T21:19:20.408Z,88.80
2022-11-01T21:21:50.878Z,88.70
2022-11-01T21:24:23.689Z,88.90
2022-11-01T21:26:55.758Z,89.00
2022-11-01T21:29:29.852Z,89.20
2022-11-01T21:31:57.064Z,88.40
2022-11-01T21:34:29.665Z,88.80
2022-11-01T21:37:00.861Z,88.60
2022-11-01T21:39:29.635Z,88.80
2022-11-01T21:41:57.448Z,89.30
2022-11-01T21:44:39.858Z,89.70
2022-11-01T21:47:19.735Z,90.00
2022-11-01T21:49:46.622Z,90.00
2022-11-01T21:52:13.751Z,89.60
2022-11-01T21:54:41.498Z,88.90
2022-11-01T21:57:10.469Z,88.70
2022-11-01T21:59:37.726Z,88.90
2022-11-01T22:02:06.030Z,88.90
2022-11-01T22:04:33.065Z,89.00
2022-11-01T22:07:01.743Z,89.60
2022-11-01T22:09:29.072Z,89.50
2022-11-01T22:11:56.295Z,89.30
2022-11-01T22:14:24.389Z,89.40
2022-11-01T22:16:52.022Z,89.20
2022-11-01T22:19:18.879Z,89.50
2022-11-01T22:24:17.940Z,89.70
2022-11-01T22:26:44.738Z,90.00
2022-11-01T22:29:11.531Z,90.00
2022-11-01T22:31:38.300Z,89.60
2022-11-01T22:34:05.083Z,90.00
2022-11-01T22:36:35.388Z,89.70
2022-11-01T22:39:10.472Z,89.70
2022-11-01T22:41:39.767Z,89.90
2022-11-01T22:44:14.527Z,90.00
2022-11-01T22:46:56.883Z,90.00
2022-11-01T22:49:27.314Z,90.00
2022-11-01T22:51:55.531Z,90.10
2022-11-01T22:54:34.559Z,90.00
2022-11-01T22:57:08.683Z,90.00
2022-11-01T22:59:46.845Z,90.10
2022-11-01T23:02:28.161Z,90.20
2022-11-01T23:05:23.906Z,90.20
2022-11-01T23:08:11.558Z,90.30
2022-11-01T23:10:38.359Z,90.10
2022-11-01T23:13:29.665Z,90.20
2022-11-01T23:16:25.451Z,90.40
2022-11-01T23:18:59.317Z,90.60
2022-11-01T23:21:27.296Z,90.70
2022-11-01T23:23:54.986Z,91.00
2022-11-01T23:26:23.835Z,91.40
2022-11-01T23:28:54.515Z,91.10
2022-11-01T23:31:23.450Z,91.20
2022-11-01T23:33:50.848Z,91.40
2022-11-01T23:36:25.929Z,91.50
2022-11-01T23:39:01.689Z,91.50
2022-11-01T23:41:33.154Z,91.50
2022-11-01T23:44:04.256Z,91.70
2022-11-01T23:46:31.007Z,91.50
2022-11-01T23:49:10.771Z,91.70
2022-11-01T23:51:37.630Z,92.00
2022-11-01T23:54:06.537Z,91.80
2022-11-01T23:56:33.344Z,91.90
2022-11-01T23:59:04.009Z,92.00
